createdAt,value
2023-07-12T00:01:19.518Z,1.80
2023-07-12T00:03:48.588Z,1.80
2023-07-12T00:06:19.696Z,2.08
2023-07-12T00:08:48.422Z,2.17
2023-07-12T00:11:19.112Z,1.88
2023-07-12T00:13:47.269Z,1.77
2023-07-12T00:16:24.067Z,1.85
2023-07-12T00:18:52.311Z,1.90
2023-07-12T00:21:24.170Z,2.15
2023-07-12T00:23:53.863Z,1.73
2023-07-12T00:26:24.681Z,1.92
2023-07-12T00:28:53.314Z,1.77
2023-07-12T00:31:24.458Z,1.95
2023-07-12T00:33:53.281Z,2.08
2023-07-12T00:36:23.812Z,2.10
2023-07-12T00:38:52.287Z,1.98
2023-07-12T00:41:30.988Z,2.00
2023-07-12T00:44:06.525Z,1.90
2023-07-12T00:46:40.955Z,1.67
2023-07-12T00:49:11.335Z,1.70
2023-07-12T00:51:49.170Z,1.85
2023-07-12T00:54:18.920Z,1.60
2023-07-12T00:56:48.487Z,1.65
2023-07-12T00:59:23.814Z,1.50
2023-07-12T01:01:56.246Z,1.58
2023-07-12T01:04:33.375Z,1.80
2023-07-12T01:07:01.451Z,1.90
2023-07-12T01:09:30.067Z,1.77
2023-07-12T01:11:59.103Z,2.00
2023-07-12T01:14:28.117Z,1.70
2023-07-12T01:17:00.848Z,1.95
2023-07-12T01:19:29.353Z,1.73
2023-07-12T01:21:58.928Z,2.00
2023-07-12T01:24:29.221Z,1.80
2023-07-12T01:27:01.634Z,1.70
2023-07-12T01:29:31.565Z,1.95
2023-07-12T01:31:59.879Z,2.05
2023-07-12T01:34:30.217Z,1.77
2023-07-12T01:36:59.784Z,1.73
2023-07-12T01:39:27.767Z,1.65
2023-07-12T01:41:55.727Z,1.60
2023-07-12T01:44:23.667Z,1.67
2023-07-12T01:46:53.489Z,1.70
2023-07-12T01:49:21.565Z,2.33
2023-07-12T01:51:49.715Z,1.77
2023-07-12T01:54:19.100Z,1.88
2023-07-12T01:56:47.333Z,1.83
2023-07-12T01:59:15.374Z,1.88
2023-07-12T02:01:43.550Z,1.67
2023-07-12T02:04:11.609Z,2.08
2023-07-12T02:06:39.661Z,2.00
2023-07-12T02:09:08.142Z,1.67
2023-07-12T02:11:37.571Z,1.88
2023-07-12T02:14:05.603Z,1.75
2023-07-12T02:16:33.690Z,2.10
2023-07-12T02:19:01.701Z,1.73
2023-07-12T02:21:29.728Z,1.95
2023-07-12T02:23:58.004Z,1.98
2023-07-12T02:26:26.171Z,1.55
2023-07-12T02:28:55.502Z,1.92
2023-07-12T02:31:26.159Z,1.70
2023-07-12T02:33:57.612Z,1.70
2023-07-12T02:36:26.081Z,1.75
2023-07-12T02:38:54.176Z,1.63
2023-07-12T02:41:22.250Z,1.70
2023-07-12T02:43:50.278Z,1.80
2023-07-12T02:46:19.868Z,2.00
2023-07-12T02:48:48.224Z,1.70
2023-07-12T02:51:16.324Z,1.75
2023-07-12T02:53:44.330Z,1.90
2023-07-12T02:56:12.433Z,2.00
2023-07-12T02:58:40.550Z,1.70
2023-07-12T03:01:08.884Z,2.10
2023-07-12T03:03:38.547Z,1.73
2023-07-12T03:06:08.914Z,2.03
2023-07-12T03:08:37.408Z,1.42
2023-07-12T03:11:07.137Z,1.92
2023-07-12T03:13:35.723Z,1.80
2023-07-12T03:16:06.074Z,1.60
2023-07-12T03:18:34.819Z,1.60
2023-07-12T03:21:07.064Z,1.88
2023-07-12T03:23:36.501Z,2.20
2023-07-12T03:26:04.836Z,1.40
2023-07-12T03:28:33.098Z,1.80
2023-07-12T03:31:02.604Z,1.60
2023-07-12T03:33:31.636Z,2.00
2023-07-12T03:36:00.527Z,1.58
2023-07-12T03:38:32.000Z,1.63
2023-07-12T03:41:02.729Z,1.90
2023-07-12T03:43:30.781Z,1.70
2023-07-12T03:45:58.965Z,1.80
2023-07-12T03:48:27.555Z,2.25
2023-07-12T03:50:56.460Z,1.63
2023-07-12T03:53:25.468Z,1.80
2023-07-12T03:55:54.868Z,1.50
2023-07-12T03:58:25.691Z,1.60
2023-07-12T04:00:54.143Z,1.45
2023-07-12T04:03:22.570Z,1.88
2023-07-12T04:05:53.803Z,1.85
2023-07-12T04:08:22.590Z,1.50
2023-07-12T04:10:54.997Z,1.52
2023-07-12T04:13:24.560Z,1.75
2023-07-12T04:15:55.320Z,1.58
2023-07-12T04:18:23.594Z,1.88
2023-07-12T04:20:52.198Z,1.42
2023-07-12T04:23:20.257Z,2.00
2023-07-12T04:25:48.280Z,1.55
2023-07-12T04:28:17.605Z,1.52
2023-07-12T04:30:45.721Z,1.83
2023-07-12T04:33:14.248Z,1.65
2023-07-12T04:35:42.318Z,1.45
2023-07-12T04:38:10.251Z,1.45
2023-07-12T04:40:38.201Z,1.45
2023-07-12T04:43:06.260Z,1.88
2023-07-12T04:45:35.973Z,1.80
2023-07-12T04:48:04.199Z,1.88
2023-07-12T04:50:34.453Z,1.63
2023-07-12T04:53:02.369Z,1.80
2023-07-12T04:55:30.367Z,1.52
2023-07-12T04:57:58.790Z,1.80
2023-07-12T05:00:27.298Z,1.73
2023-07-12T05:02:56.839Z,1.60
2023-07-12T05:05:25.150Z,1.60
2023-07-12T05:07:53.347Z,1.60
2023-07-12T05:10:21.385Z,1.40
2023-07-12T05:12:49.417Z,1.38
2023-07-12T05:15:18.047Z,1.75
2023-07-12T05:17:46.451Z,1.60
2023-07-12T05:20:17.980Z,1.67
2023-07-12T05:22:48.433Z,1.70
2023-07-12T05:25:17.123Z,1.63
2023-07-12T05:27:45.309Z,1.80
2023-07-12T05:30:13.855Z,1.65
2023-07-12T05:32:42.102Z,1.50
2023-07-12T05:35:10.742Z,1.70
2023-07-12T05:37:40.321Z,1.70
2023-07-12T05:40:11.170Z,2.10
2023-07-12T05:42:41.997Z,1.50
2023-07-12T05:45:14.016Z,1.73
2023-07-12T05:47:43.892Z,1.63
2023-07-12T05:50:18.350Z,1.38
2023-07-12T05:52:49.239Z,1.80
2023-07-12T05:55:19.969Z,2.03
2023-07-12T05:57:49.241Z,1.60
2023-07-12T06:00:19.180Z,1.60
2023-07-12T06:02:47.279Z,1.42
2023-07-12T06:05:15.247Z,1.70
2023-07-12T06:07:43.548Z,1.30
2023-07-12T06:10:13.476Z,1.58
2023-07-12T06:12:41.534Z,1.70
2023-07-12T06:15:10.846Z,1.73
2023-07-12T06:17:38.978Z,1.63
2023-07-12T06:20:08.956Z,1.50
2023-07-12T06:22:38.109Z,1.80
2023-07-12T06:25:08.577Z,1.63
2023-07-12T06:27:38.617Z,1.98
2023-07-12T06:30:07.665Z,1.80
2023-07-12T06:32:35.838Z,1.60
2023-07-12T06:35:04.421Z,1.80
2023-07-12T06:37:32.438Z,1.45
2023-07-12T06:40:00.689Z,2.15
2023-07-12T06:42:28.758Z,1.42
2023-07-12T06:44:58.213Z,1.83
2023-07-12T06:47:26.223Z,1.60
2023-07-12T06:49:54.959Z,1.85
2023-07-12T06:52:23.173Z,1.73
2023-07-12T06:54:51.173Z,1.30
2023-07-12T06:57:19.820Z,1.90
2023-07-12T06:59:47.855Z,1.90
2023-07-12T07:02:17.117Z,1.65
2023-07-12T07:04:45.054Z,1.70
2023-07-12T07:07:12.969Z,1.40
2023-07-12T07:09:41.095Z,1.70
2023-07-12T07:12:09.924Z,1.92
2023-07-12T07:14:37.943Z,1.60
2023-07-12T07:17:06.268Z,1.60
2023-07-12T07:19:35.645Z,1.60
2023-07-12T07:22:04.001Z,1.77
2023-07-12T07:24:32.082Z,2.00
2023-07-12T07:27:00.238Z,1.92
2023-07-12T07:29:28.387Z,1.80
2023-07-12T07:31:56.423Z,1.83
2023-07-12T07:34:24.488Z,1.90
2023-07-12T07:36:53.886Z,1.70
2023-07-12T07:39:22.056Z,1.60
2023-07-12T07:41:50.158Z,1.80
2023-07-12T07:44:18.209Z,1.45
2023-07-12T07:46:46.204Z,1.60
2023-07-12T07:49:14.302Z,1.83
2023-07-12T07:51:42.632Z,1.73
2023-07-12T07:54:11.999Z,1.63
2023-07-12T07:56:40.841Z,1.73
2023-07-12T07:59:08.832Z,2.05
2023-07-12T08:01:37.040Z,1.80
2023-07-12T08:04:06.998Z,1.60
2023-07-12T08:06:35.665Z,1.95
2023-07-12T08:09:04.137Z,1.90
2023-07-12T08:11:36.372Z,1.92
2023-07-12T08:14:04.993Z,1.75
2023-07-12T08:16:34.852Z,2.00
2023-07-12T08:19:12.103Z,1.80
2023-07-12T08:21:45.433Z,1.75
2023-07-12T08:24:13.397Z,1.70
2023-07-12T08:26:51.331Z,1.60
2023-07-12T08:29:22.815Z,1.60
2023-07-12T08:31:50.840Z,2.10
2023-07-12T08:34:18.936Z,1.60
2023-07-12T08:36:47.005Z,1.80
2023-07-12T08:39:15.152Z,1.85
2023-07-12T08:41:44.521Z,1.70
2023-07-12T08:44:15.526Z,1.58
2023-07-12T08:46:50.482Z,1.92
2023-07-12T08:49:20.307Z,1.80
2023-07-12T08:51:49.041Z,2.03
2023-07-12T08:54:24.363Z,1.92
2023-07-12T08:57:04.298Z,1.70
2023-07-12T08:59:33.741Z,1.60
2023-07-12T09:02:04.533Z,1.55
2023-07-12T09:04:33.709Z,1.50
2023-07-12T09:07:05.515Z,2.03
2023-07-12T09:09:38.024Z,1.85
2023-07-12T09:12:22.969Z,1.38
2023-07-12T09:14:54.953Z,2.00
2023-07-12T09:17:26.603Z,1.60
2023-07-12T09:19:54.642Z,1.85
2023-07-12T09:22:23.915Z,1.63
2023-07-12T09:24:57.633Z,1.80
2023-07-12T09:27:29.623Z,1.58
2023-07-12T09:30:02.703Z,1.60
2023-07-12T09:32:34.954Z,1.63
2023-07-12T09:35:04.228Z,1.92
2023-07-12T09:37:38.876Z,1.80
2023-07-12T09:40:17.407Z,1.70
2023-07-12T09:42:49.738Z,1.42
2023-07-12T09:45:17.928Z,3.90
2023-07-12T09:47:57.663Z,13.27
2023-07-12T09:50:33.745Z,17.15
2023-07-12T09:53:05.642Z,36.38
2023-07-12T09:55:41.319Z,35.55
2023-07-12T09:58:32.285Z,37.35
2023-07-12T10:01:05.154Z,22.75
2023-07-12T10:03:38.910Z,17.70
2023-07-12T10:06:16.590Z,14.55
2023-07-12T10:08:51.757Z,14.55
2023-07-12T10:11:30.223Z,13.07
2023-07-12T10:14:04.743Z,13.00
2023-07-12T10:16:36.933Z,11.68
2023-07-12T10:19:15.490Z,9.38
2023-07-12T10:21:43.708Z,10.57
2023-07-12T10:24:16.383Z,9.10
2023-07-12T10:26:45.754Z,9.77
2023-07-12T10:29:21.514Z,8.27
2023-07-12T10:31:55.128Z,7.70
2023-07-12T10:34:30.934Z,7.28
2023-07-12T10:37:06.278Z,8.50
2023-07-12T10:39:34.381Z,8.85
2023-07-12T10:42:07.718Z,9.57
2023-07-12T10:44:41.938Z,10.40
2023-07-12T10:47:16.863Z,10.68
2023-07-12T10:49:47.313Z,10.80
2023-07-12T10:52:30.092Z,13.55
2023-07-12T10:55:20.508Z,16.95
2023-07-12T10:57:51.212Z,16.80
2023-07-12T11:00:26.664Z,13.27
2023-07-12T11:03:17.717Z,10.70
2023-07-12T11:05:48.909Z,11.15
2023-07-12T11:08:54.713Z,11.70
2023-07-12T11:11:45.847Z,8.45
2023-07-12T11:14:28.099Z,7.22
2023-07-12T11:17:16.682Z,7.15
2023-07-12T11:20:04.673Z,7.78
2023-07-12T11:22:59.454Z,9.95
2023-07-12T11:25:58.985Z,5.25
2023-07-12T11:28:31.051Z,8.52
2023-07-12T11:31:28.262Z,5.32
2023-07-12T11:34:07.109Z,7.60
2023-07-12T11:36:37.233Z,5.80
2023-07-12T11:39:14.776Z,6.57
2023-07-12T11:41:53.771Z,3.42
2023-07-12T11:44:21.778Z,5.00
2023-07-12T11:46:52.734Z,4.85
2023-07-12T11:49:25.618Z,4.43
2023-07-12T11:51:57.669Z,4.53
2023-07-12T11:54:27.637Z,5.05
2023-07-12T11:56:59.717Z,5.18
2023-07-12T11:59:33.939Z,6.05
2023-07-12T12:02:06.700Z,5.78
2023-07-12T12:04:36.286Z,4.72
2023-07-12T12:07:13.190Z,4.90
2023-07-12T12:09:41.411Z,3.92
2023-07-12T12:12:10.549Z,3.53
2023-07-12T12:14:42.234Z,4.50
2023-07-12T12:17:16.398Z,3.22
2023-07-12T12:19:51.269Z,3.17
2023-07-12T12:22:25.581Z,3.10
2023-07-12T12:24:57.571Z,3.03
2023-07-12T12:27:34.053Z,3.45
2023-07-12T12:30:10.398Z,3.33
2023-07-12T12:32:41.114Z,2.90
2023-07-12T12:35:15.413Z,2.80
2023-07-12T12:37:56.021Z,3.10
2023-07-12T12:40:24.340Z,2.92
2023-07-12T12:43:00.833Z,3.00
2023-07-12T12:45:33.110Z,2.60
2023-07-12T12:48:10.759Z,3.30
2023-07-12T12:53:32.355Z,2.90
2023-07-12T13:06:21.610Z,2.33
2023-07-12T13:21:45.765Z,2.17
2023-07-12T13:24:13.813Z,3.05
2023-07-12T13:26:43.389Z,2.95
2023-07-12T13:29:21.413Z,2.78
2023-07-12T13:31:49.439Z,2.60
2023-07-12T13:34:19.128Z,3.20
2023-07-12T13:36:51.010Z,2.78
2023-07-12T13:46:55.108Z,2.55
2023-07-12T13:49:23.233Z,3.08
2023-07-12T13:51:52.647Z,2.75
2023-07-12T13:54:22.141Z,2.38
2023-07-12T13:56:50.582Z,2.20
2023-07-12T13:59:19.920Z,2.53
2023-07-12T14:02:51.854Z,3.20
2023-07-12T14:04:50.134Z,2.92
2023-07-12T14:08:08.281Z,2.30
2023-07-12T14:10:18.090Z,1.98
2023-07-12T14:12:48.471Z,2.80
2023-07-12T14:15:19.709Z,2.20
2023-07-12T14:17:48.717Z,2.20
2023-07-12T14:20:17.405Z,2.25
2023-07-12T14:22:46.950Z,2.58
2023-07-12T14:25:20.042Z,1.90
2023-07-12T14:27:48.780Z,2.05
2023-07-12T14:32:50.063Z,1.80
2023-07-12T14:35:23.247Z,2.10
2023-07-12T14:37:52.706Z,2.03
2023-07-12T14:40:22.295Z,2.58
2023-07-12T14:42:50.301Z,2.03
2023-07-12T14:45:22.493Z,1.85
2023-07-12T14:47:51.274Z,2.08
2023-07-12T14:50:21.463Z,2.00
2023-07-12T14:52:49.998Z,2.05
2023-07-12T14:55:20.463Z,2.05
2023-07-12T15:00:21.042Z,1.70
2023-07-12T15:02:53.638Z,2.00
2023-07-12T15:05:22.107Z,2.28
2023-07-12T15:07:50.193Z,2.70
2023-07-12T15:10:20.570Z,1.90
2023-07-12T15:12:51.187Z,1.77
2023-07-12T15:15:22.609Z,2.03
2023-07-12T15:17:54.544Z,2.10
2023-07-12T15:20:25.207Z,1.95
2023-07-12T15:22:53.629Z,1.50
2023-07-12T15:25:25.714Z,1.90
2023-07-12T15:27:55.016Z,1.58
2023-07-12T15:30:27.675Z,1.90
2023-07-12T15:32:57.323Z,2.15
2023-07-12T15:35:31.714Z,2.10
2023-07-12T15:38:01.524Z,1.83
2023-07-12T15:40:56.435Z,2.45
2023-07-12T15:43:27.811Z,2.20
2023-07-12T15:45:57.864Z,2.33
2023-07-12T15:48:27.885Z,2.33
2023-07-12T15:51:00.094Z,2.03
2023-07-12T15:53:28.345Z,2.33
2023-07-12T15:55:57.706Z,2.03
2023-07-12T15:58:28.448Z,2.10
2023-07-12T16:00:58.809Z,1.90
2023-07-12T16:03:29.168Z,1.83
2023-07-12T16:05:58.069Z,2.38
2023-07-12T16:08:27.371Z,1.98
2023-07-12T16:10:58.905Z,2.00
2023-07-12T16:13:29.537Z,2.13
2023-07-12T16:15:57.976Z,2.30
2023-07-12T16:18:28.014Z,2.00
2023-07-12T16:20:58.733Z,1.90
2023-07-12T16:23:33.368Z,2.10
2023-07-12T16:26:04.021Z,2.38
2023-07-12T16:28:33.598Z,1.95
2023-07-12T16:31:02.194Z,1.92
2023-07-12T16:33:32.787Z,2.50
2023-07-12T16:36:00.732Z,2.63
2023-07-12T16:38:30.201Z,2.13
2023-07-12T16:40:59.754Z,2.45
2023-07-12T16:43:30.992Z,1.98
2023-07-12T16:46:00.161Z,2.33
2023-07-12T16:48:28.245Z,2.25
2023-07-12T16:50:56.466Z,2.15
2023-07-12T16:53:32.293Z,2.75
2023-07-12T16:56:01.908Z,2.42
2023-07-12T16:58:31.851Z,1.98
2023-07-12T17:01:01.737Z,2.20
2023-07-12T17:03:34.234Z,2.40
2023-07-12T17:06:02.837Z,2.60
2023-07-12T17:08:30.996Z,2.42
2023-07-12T17:11:01.068Z,2.10
2023-07-12T17:13:29.140Z,2.13
2023-07-12T17:15:58.638Z,2.30
2023-07-12T17:18:26.639Z,2.40
2023-07-12T17:20:57.121Z,2.60
2023-07-12T17:23:28.567Z,1.90
2023-07-12T17:25:59.576Z,2.30
2023-07-12T17:28:30.271Z,1.80
2023-07-12T17:31:03.718Z,1.83
2023-07-12T17:33:31.978Z,2.00
2023-07-12T17:36:00.368Z,2.53
2023-07-12T17:38:28.779Z,2.28
2023-07-12T17:40:58.146Z,1.92
2023-07-12T17:43:32.064Z,2.35
2023-07-12T17:46:01.477Z,2.03
2023-07-12T17:48:29.446Z,2.08
2023-07-12T17:50:59.918Z,2.00
2023-07-12T17:53:28.389Z,1.75
2023-07-12T17:55:58.185Z,2.10
2023-07-12T17:58:28.672Z,1.83
2023-07-12T18:00:57.914Z,2.05
2023-07-12T18:03:29.547Z,1.98
2023-07-12T18:05:57.684Z,1.73
2023-07-12T18:08:25.756Z,1.98
2023-07-12T18:10:56.494Z,1.80
2023-07-12T18:13:26.528Z,1.88
2023-07-12T18:15:55.336Z,1.80
2023-07-12T18:18:23.415Z,1.75
2023-07-12T18:20:54.098Z,2.15
2023-07-12T18:23:24.599Z,1.88
2023-07-12T18:25:54.018Z,1.85
2023-07-12T18:28:23.072Z,1.60
2023-07-12T18:30:55.844Z,2.40
2023-07-12T18:33:25.755Z,2.30
2023-07-12T18:35:56.134Z,2.17
2023-07-12T18:38:24.402Z,1.52
2023-07-12T18:40:52.502Z,1.80
2023-07-12T18:43:22.946Z,1.77
2023-07-12T18:45:51.112Z,2.22
2023-07-12T18:48:19.750Z,1.98
2023-07-12T18:50:49.244Z,1.85
2023-07-12T18:53:21.455Z,1.98
2023-07-12T18:55:49.504Z,1.70
2023-07-12T18:58:18.470Z,1.90
2023-07-12T19:00:48.093Z,1.88
2023-07-12T19:03:33.774Z,2.13
2023-07-12T19:06:03.093Z,2.42
2023-07-12T19:08:33.466Z,1.90
2023-07-12T19:11:01.440Z,1.80
2023-07-12T19:13:29.373Z,1.77
2023-07-12T19:16:00.305Z,1.90
2023-07-12T19:18:28.864Z,2.05
2023-07-12T19:20:56.890Z,1.58
2023-07-12T19:23:25.122Z,1.70
2023-07-12T19:25:54.710Z,1.63
2023-07-12T19:28:22.744Z,2.13
2023-07-12T19:30:52.202Z,1.50
2023-07-12T19:33:20.893Z,1.85
2023-07-12T19:35:50.719Z,2.17
2023-07-12T19:38:18.719Z,1.67
2023-07-12T19:40:46.710Z,1.95
2023-07-12T19:43:16.139Z,1.48
2023-07-12T19:45:44.110Z,1.80
2023-07-12T19:48:14.812Z,1.58
2023-07-12T19:50:43.696Z,1.70
2023-07-12T19:53:27.081Z,1.80
2023-07-12T19:55:56.166Z,1.92
2023-07-12T19:58:29.943Z,1.83
2023-07-12T20:00:58.054Z,2.15
2023-07-12T20:03:26.179Z,1.70
2023-07-12T20:08:23.626Z,1.90
2023-07-12T20:10:51.625Z,1.85
2023-07-12T20:13:19.669Z,2.10
2023-07-12T20:15:51.980Z,1.83
2023-07-12T20:18:20.492Z,1.65
2023-07-12T20:20:51.652Z,1.52
2023-07-12T20:23:20.421Z,2.35
2023-07-12T20:25:50.457Z,2.03
2023-07-12T20:28:19.469Z,1.90
2023-07-12T20:30:49.306Z,2.05
2023-07-12T20:33:22.484Z,1.92
2023-07-12T20:35:51.324Z,1.70
2023-07-12T20:38:19.483Z,2.30
2023-07-12T20:40:47.969Z,1.50
2023-07-12T20:43:15.966Z,1.70
2023-07-12T20:45:44.165Z,1.95
2023-07-12T20:48:14.365Z,1.77
2023-07-12T20:50:47.718Z,1.95
2023-07-12T20:53:15.852Z,1.52
2023-07-12T20:55:43.796Z,1.83
2023-07-12T20:58:12.098Z,2.40
2023-07-12T21:00:49.391Z,2.15
2023-07-12T21:03:18.773Z,2.47
2023-07-12T21:05:48.411Z,2.20
2023-07-12T21:08:16.467Z,2.08
2023-07-12T21:10:44.475Z,2.17
2023-07-12T21:13:12.469Z,2.13
2023-07-12T21:15:43.777Z,2.50
2023-07-12T21:18:11.978Z,1.92
2023-07-12T21:20:40.100Z,2.17
2023-07-12T21:23:09.532Z,2.45
2023-07-12T21:25:37.586Z,2.60
2023-07-12T21:28:05.854Z,1.98
2023-07-12T21:30:33.937Z,2.30
2023-07-12T21:33:02.121Z,2.20
2023-07-12T21:35:30.976Z,2.30
2023-07-12T21:37:59.137Z,1.98
2023-07-12T21:40:28.548Z,2.60
2023-07-12T21:42:56.684Z,2.20
2023-07-12T21:45:24.858Z,2.72
2023-07-12T21:47:52.890Z,2.10
2023-07-12T21:50:20.978Z,2.65
2023-07-12T21:52:49.336Z,1.85
2023-07-12T21:55:17.639Z,1.98
2023-07-12T21:57:47.151Z,2.25
2023-07-12T22:00:21.590Z,2.83
2023-07-12T22:02:50.968Z,2.53
2023-07-12T22:05:19.927Z,2.40
2023-07-12T22:07:55.057Z,2.20
2023-07-12T22:10:25.989Z,2.13
2023-07-12T22:12:55.661Z,2.70
2023-07-12T22:15:23.968Z,2.10
2023-07-12T22:17:52.802Z,1.80
2023-07-12T22:20:22.938Z,1.90
2023-07-12T22:22:52.060Z,1.92
2023-07-12T22:25:20.571Z,1.90
2023-07-12T22:27:48.956Z,2.20
2023-07-12T22:30:27.699Z,1.95
2023-07-12T22:32:56.274Z,1.98
2023-07-12T22:35:25.106Z,2.10
2023-07-12T22:37:54.426Z,1.92
2023-07-12T22:40:26.991Z,1.75
2023-07-12T22:42:55.338Z,2.15
2023-07-12T22:45:25.752Z,1.92
2023-07-12T22:47:53.865Z,1.70
2023-07-12T22:50:22.097Z,2.00
2023-07-12T22:52:50.493Z,2.00
2023-07-12T22:55:19.023Z,2.17
2023-07-12T22:57:47.273Z,1.90
2023-07-12T23:00:17.496Z,2.10
2023-07-12T23:02:47.019Z,1.98
2023-07-12T23:05:16.746Z,2.30
2023-07-12T23:07:48.133Z,2.40
2023-07-12T23:10:17.352Z,1.77
2023-07-12T23:12:45.597Z,1.92
2023-07-12T23:15:15.360Z,2.05
2023-07-12T23:17:45.911Z,1.80
2023-07-12T23:20:17.205Z,1.70
2023-07-12T23:22:45.352Z,1.60
2023-07-12T23:25:26.572Z,1.65
2023-07-12T23:27:56.144Z,2.00
2023-07-12T23:30:25.197Z,1.50
2023-07-12T23:32:54.155Z,1.50
2023-07-12T23:35:23.609Z,1.48
2023-07-12T23:37:51.968Z,1.60
2023-07-12T23:40:19.931Z,1.60
2023-07-12T23:42:47.918Z,1.73
2023-07-12T23:45:15.969Z,2.35
2023-07-12T23:47:44.146Z,1.67
2023-07-12T23:50:12.914Z,1.77
2023-07-12T23:52:42.677Z,1.83
2023-07-12T23:55:11.332Z,1.83
2023-07-12T23:57:39.978Z,1.52
